createdAt,value
2017-12-02T00:00:15.903Z,101601.23
2017-12-02T00:02:42.521Z,101606.99
2017-12-02T00:05:09.255Z,101608.73
2017-12-02T00:07:36.092Z,101606.28
2017-12-02T00:10:02.839Z,101607.72
2017-12-02T00:12:28.615Z,101609.18
2017-12-02T00:14:54.381Z,101611.80
2017-12-02T00:17:20.147Z,101612.14
2017-12-02T00:19:46.764Z,101616.24
2017-12-02T00:22:12.551Z,101613.80
2017-12-02T00:24:38.323Z,101617.64
2017-12-02T00:27:04.100Z,101621.61
2017-12-02T00:29:30.820Z,101627.13
2017-12-02T00:31:57.606Z,101621.05
2017-12-02T00:34:24.532Z,101624.73
2017-12-02T00:36:51.194Z,101631.59
2017-12-02T00:39:17.079Z,101629.66
2017-12-02T00:41:42.887Z,101631.69
2017-12-02T00:44:09.519Z,101634.41
2017-12-02T00:46:36.336Z,101631.70
2017-12-02T00:49:02.107Z,101638.66
2017-12-02T00:51:27.893Z,101637.98
2017-12-02T00:53:54.675Z,101635.42
2017-12-02T00:56:20.492Z,101642.42
2017-12-02T00:58:47.376Z,101639.50
2017-12-02T01:01:13.181Z,101644.48
2017-12-02T01:03:38.960Z,101648.16
2017-12-02T01:06:04.748Z,101645.32
2017-12-02T01:08:30.536Z,101645.20
2017-12-02T01:10:56.329Z,101646.30
2017-12-02T01:13:22.096Z,101655.89
2017-12-02T01:15:47.919Z,101659.44
2017-12-02T01:18:13.718Z,101657.05
2017-12-02T01:20:40.396Z,101655.24
2017-12-02T01:23:06.174Z,101667.83
2017-12-02T01:25:31.968Z,101668.59
2017-12-02T01:27:57.754Z,101669.89
2017-12-02T01:30:24.592Z,101670.82
2017-12-02T01:32:50.367Z,101671.16
2017-12-02T01:35:16.136Z,101670.38
2017-12-02T01:37:41.920Z,101683.41
2017-12-02T01:40:07.699Z,101688.88
2017-12-02T01:42:33.472Z,101693.88
2017-12-02T01:44:59.289Z,101699.41
2017-12-02T01:47:26.000Z,101695.63
2017-12-02T01:49:52.748Z,101693.22
2017-12-02T01:52:19.487Z,101698.19
2017-12-02T01:54:45.267Z,101698.37
2017-12-02T01:57:11.844Z,101704.74
2017-12-02T01:59:37.620Z,101706.80
2017-12-02T02:02:03.423Z,101703.05
2017-12-02T02:04:29.203Z,101706.80
2017-12-02T02:06:54.978Z,101710.56
2017-12-02T02:09:20.755Z,101712.14
2017-12-02T02:11:46.530Z,101708.30
2017-12-02T02:14:12.337Z,101706.23
2017-12-02T02:16:38.116Z,101712.45
2017-12-02T02:19:03.931Z,101716.77
2017-12-02T02:21:29.706Z,101711.45
2017-12-02T02:23:55.467Z,101712.73
2017-12-02T02:26:21.287Z,101719.17
2017-12-02T02:28:48.028Z,101727.83
2017-12-02T02:31:14.781Z,101730.27
2017-12-02T02:33:41.546Z,101732.22
2017-12-02T02:36:07.322Z,101740.31
2017-12-02T02:38:34.059Z,101733.36
2017-12-02T02:40:59.838Z,101741.81
2017-12-02T02:43:25.612Z,101743.27
2017-12-02T02:45:51.440Z,101748.54
2017-12-02T02:48:18.255Z,101747.82
2017-12-02T02:50:44.027Z,101742.42
2017-12-02T02:53:09.836Z,101752.27
2017-12-02T02:55:35.620Z,101750.88
2017-12-02T02:58:02.239Z,101754.55
2017-12-02T03:00:28.817Z,101758.02
2017-12-02T03:02:54.589Z,101758.22
2017-12-02T03:05:21.327Z,101753.70
2017-12-02T03:07:48.124Z,101761.77
2017-12-02T03:10:13.936Z,101759.25
2017-12-02T03:12:40.614Z,101760.38
2017-12-02T03:15:06.445Z,101757.39
2017-12-02T03:17:33.085Z,101759.90
2017-12-02T03:19:58.868Z,101759.34
2017-12-02T03:22:24.690Z,101768.12
2017-12-02T03:24:50.471Z,101765.13
2017-12-02T03:27:16.250Z,101771.14
2017-12-02T03:29:42.038Z,101774.03
2017-12-02T03:32:07.820Z,101776.97
2017-12-02T03:34:33.627Z,101775.65
2017-12-02T03:36:59.407Z,101782.56
2017-12-02T03:39:25.288Z,101783.98
2017-12-02T03:41:52.088Z,101790.16
2017-12-02T03:44:18.838Z,101784.38
2017-12-02T03:46:44.666Z,101782.09
2017-12-02T03:49:11.331Z,101788.93
2017-12-02T03:51:37.131Z,101791.39
2017-12-02T03:54:03.829Z,101793.23
2017-12-02T03:56:29.642Z,101793.83
2017-12-02T03:58:55.423Z,101793.86
2017-12-02T04:01:22.079Z,101798.11
2017-12-02T04:03:48.824Z,101805.31
2017-12-02T04:06:15.706Z,101803.53
2017-12-02T04:08:41.488Z,101805.31
2017-12-02T04:11:08.126Z,101802.38
2017-12-02T04:13:33.922Z,101810.14
2017-12-02T04:16:00.547Z,101816.06
2017-12-02T04:18:27.339Z,101818.92
2017-12-02T04:20:53.144Z,101817.83
2017-12-02T04:23:18.943Z,101818.42
2017-12-02T04:25:45.749Z,101826.45
2017-12-02T04:28:12.551Z,101832.41
2017-12-02T04:30:38.367Z,101833.56
2017-12-02T04:33:05.126Z,101834.99
2017-12-02T04:35:30.978Z,101824.36
2017-12-02T04:37:57.596Z,101833.62
2017-12-02T04:40:23.449Z,101841.97
2017-12-02T04:42:49.232Z,101835.70
2017-12-02T04:45:15.016Z,101837.41
2017-12-02T04:47:40.796Z,101838.95
2017-12-02T04:50:07.411Z,101837.90
2017-12-02T04:52:33.216Z,101843.05
2017-12-02T04:54:58.991Z,101845.77
2017-12-02T04:57:24.764Z,101841.55
2017-12-02T04:59:50.548Z,101849.16
2017-12-02T05:02:16.327Z,101847.20
2017-12-02T05:04:42.105Z,101845.75
2017-12-02T05:07:07.907Z,101845.83
2017-12-02T05:09:34.642Z,101850.33
2017-12-02T05:12:00.420Z,101848.77
2017-12-02T05:14:27.111Z,101853.63
2017-12-02T05:16:52.879Z,101855.32
2017-12-02T05:19:19.645Z,101856.25
2017-12-02T05:21:45.419Z,101854.95
2017-12-02T05:24:11.197Z,101854.28
2017-12-02T05:26:36.976Z,101854.92
2017-12-02T05:29:02.760Z,101863.28
2017-12-02T05:31:28.539Z,101859.31
2017-12-02T05:33:54.319Z,101862.53
2017-12-02T05:36:20.091Z,101858.49
2017-12-02T05:38:45.871Z,101858.18
2017-12-02T05:41:11.642Z,101861.96
2017-12-02T05:43:37.430Z,101860.42
2017-12-02T05:46:03.212Z,101867.45
2017-12-02T05:48:28.988Z,101869.36
2017-12-02T05:50:54.768Z,101875.06
2017-12-02T05:53:20.539Z,101882.13
2017-12-02T05:55:46.311Z,101876.45
2017-12-02T05:58:12.144Z,101881.36
2017-12-02T06:00:37.938Z,101875.85
2017-12-02T06:03:03.718Z,101879.46
2017-12-02T06:05:29.491Z,101886.02
2017-12-02T06:07:55.262Z,101889.50
2017-12-02T06:10:21.931Z,101886.55
2017-12-02T06:12:47.698Z,101892.89
2017-12-02T06:15:14.331Z,101887.20
2017-12-02T06:17:40.139Z,101884.98
2017-12-02T06:20:07.017Z,101893.05
2017-12-02T06:22:32.799Z,101891.24
2017-12-02T06:24:59.575Z,101892.93
2017-12-02T06:27:25.343Z,101887.64
2017-12-02T06:29:51.154Z,101886.59
2017-12-02T06:32:17.875Z,101895.34
2017-12-02T06:34:43.775Z,101897.14
2017-12-02T06:37:09.555Z,101900.36
2017-12-02T06:39:36.259Z,101902.17
2017-12-02T06:42:03.095Z,101908.20
2017-12-02T06:44:28.893Z,101904.71
2017-12-02T06:46:54.724Z,101912.69
2017-12-02T06:49:20.497Z,101915.09
2017-12-02T06:51:46.317Z,101917.41
2017-12-02T06:54:12.396Z,101918.22
2017-12-02T06:56:39.046Z,101917.55
2017-12-02T06:59:04.868Z,101922.13
2017-12-02T07:01:31.544Z,101925.06
2017-12-02T07:03:58.280Z,101928.97
2017-12-02T07:06:25.071Z,101928.31
2017-12-02T07:08:51.839Z,101931.94
2017-12-02T07:11:18.543Z,101932.34
2017-12-02T07:13:45.315Z,101932.05
2017-12-02T07:16:11.107Z,101939.31
2017-12-02T07:18:36.900Z,101944.05
2017-12-02T07:21:02.692Z,101945.69
2017-12-02T07:23:28.534Z,101948.94
2017-12-02T07:25:54.334Z,101953.24
2017-12-02T07:28:20.125Z,101950.73
2017-12-02T07:30:46.728Z,101961.84
2017-12-02T07:33:12.504Z,101952.30
2017-12-02T07:35:38.327Z,101957.27
2017-12-02T07:38:04.107Z,101962.97
2017-12-02T07:40:29.888Z,101961.45
2017-12-02T07:42:55.667Z,101964.20
2017-12-02T07:45:22.392Z,101959.69
2017-12-02T07:47:48.168Z,101962.05
2017-12-02T07:50:15.534Z,101966.52
2017-12-02T07:52:41.432Z,101974.00
2017-12-02T07:55:08.000Z,101976.80
2017-12-02T07:57:33.823Z,101969.91
2017-12-02T08:00:00.470Z,101976.56
2017-12-02T08:02:26.238Z,101975.55
2017-12-02T08:04:52.044Z,101974.58
2017-12-02T08:07:18.818Z,101980.42
2017-12-02T08:09:44.760Z,101978.48
2017-12-02T08:12:10.564Z,101977.55
2017-12-02T08:14:37.303Z,101980.62
2017-12-02T08:17:04.119Z,101984.08
2017-12-02T08:19:29.900Z,101980.66
2017-12-02T08:21:56.600Z,101980.86
2017-12-02T08:24:23.312Z,101982.48
2017-12-02T08:26:49.114Z,101982.61
2017-12-02T08:29:14.899Z,101985.95
2017-12-02T08:31:41.551Z,101993.78
2017-12-02T08:34:08.172Z,101994.48
2017-12-02T08:36:33.939Z,101997.20
2017-12-02T08:39:00.493Z,102002.12
2017-12-02T08:41:27.079Z,102005.33
2017-12-02T08:43:53.774Z,102010.31
2017-12-02T08:46:19.559Z,102019.02
2017-12-02T08:48:46.178Z,102013.67
2017-12-02T08:51:11.961Z,102017.66
2017-12-02T08:53:38.623Z,102019.66
2017-12-02T08:56:04.399Z,102024.38
2017-12-02T08:58:30.171Z,102025.49
2017-12-02T09:00:55.943Z,102027.16
2017-12-02T09:03:21.828Z,102025.47
2017-12-02T09:05:47.607Z,102035.52
2017-12-02T09:08:13.588Z,102031.91
2017-12-02T09:10:39.367Z,102032.47
2017-12-02T09:13:06.111Z,102033.09
2017-12-02T09:15:31.892Z,102042.86
2017-12-02T09:17:57.688Z,102046.83
2017-12-02T09:20:23.463Z,102046.02
2017-12-02T09:22:50.196Z,102057.92
2017-12-02T09:25:16.791Z,102047.59
2017-12-02T09:27:43.582Z,102050.60
2017-12-02T09:30:09.376Z,102049.95
2017-12-02T09:32:35.191Z,102056.19
2017-12-02T09:35:01.960Z,102053.97
2017-12-02T09:37:27.872Z,102056.41
2017-12-02T09:39:53.652Z,102053.13
2017-12-02T09:42:19.505Z,102051.81
2017-12-02T09:44:45.279Z,102051.69
2017-12-02T09:47:11.094Z,102055.50
2017-12-02T09:49:36.893Z,102055.36
2017-12-02T09:52:02.716Z,102052.78
2017-12-02T09:54:28.493Z,102052.85
2017-12-02T09:56:55.073Z,102047.98
2017-12-02T09:59:20.849Z,102047.81
2017-12-02T10:01:46.627Z,102051.88
2017-12-02T10:04:12.447Z,102055.71
2017-12-02T10:06:39.167Z,102051.81
2017-12-02T10:09:04.975Z,102050.53
2017-12-02T10:11:30.752Z,102053.61
2017-12-02T10:13:56.567Z,102049.47
2017-12-02T10:16:22.347Z,102042.52
2017-12-02T10:18:48.123Z,102046.64
2017-12-02T10:21:13.903Z,102049.01
2017-12-02T10:23:39.682Z,102050.51
2017-12-02T10:26:05.460Z,102053.70
2017-12-02T10:28:31.254Z,102054.45
2017-12-02T10:30:57.047Z,102051.48
2017-12-02T10:33:24.870Z,102051.96
2017-12-02T10:35:50.811Z,102045.34
2017-12-02T10:38:16.643Z,102043.52
2017-12-02T10:40:42.427Z,102040.53
2017-12-02T10:43:08.257Z,102038.04
2017-12-02T10:45:35.079Z,102036.09
2017-12-02T10:48:02.015Z,102031.43
2017-12-02T10:50:28.744Z,102028.44
2017-12-02T10:52:55.009Z,102029.73
2017-12-02T10:55:21.008Z,102028.56
2017-12-02T10:57:47.877Z,102025.98
2017-12-02T11:00:14.575Z,102017.93
2017-12-02T11:02:41.227Z,102020.98
2017-12-02T11:05:07.012Z,102017.61
2017-12-02T11:07:32.912Z,102025.28
2017-12-02T11:09:58.747Z,102023.54
2017-12-02T11:12:24.527Z,102024.17
2017-12-02T11:14:50.527Z,102027.22
2017-12-02T11:17:16.294Z,102032.14
2017-12-02T11:19:42.077Z,102037.23
2017-12-02T11:22:07.900Z,102035.67
2017-12-02T11:24:34.685Z,102036.91
2017-12-02T11:27:00.482Z,102033.08
2017-12-02T11:29:26.324Z,102033.50
2017-12-02T11:31:52.127Z,102036.11
2017-12-02T11:34:17.992Z,102035.37
2017-12-02T11:36:43.830Z,102033.23
2017-12-02T11:39:10.585Z,102035.02
2017-12-02T11:41:37.379Z,102036.00
2017-12-02T11:44:03.155Z,102041.85
2017-12-02T11:46:28.976Z,102041.28
2017-12-02T11:48:54.816Z,102036.39
2017-12-02T11:51:20.637Z,102039.70
2017-12-02T11:53:46.420Z,102040.67
2017-12-02T11:56:12.227Z,102041.73
2017-12-02T11:58:38.012Z,102039.73
2017-12-02T12:01:03.802Z,102043.52
2017-12-02T12:03:29.574Z,102046.87
2017-12-02T12:05:55.367Z,102043.84
2017-12-02T12:08:21.161Z,102043.52
2017-12-02T12:10:46.948Z,102040.05
2017-12-02T12:13:12.919Z,102038.64
2017-12-02T12:15:38.735Z,102037.52
2017-12-02T12:18:04.511Z,102036.81
2017-12-02T12:20:30.292Z,102028.76
2017-12-02T12:22:57.000Z,102030.73
2017-12-02T12:25:22.790Z,102022.14
2017-12-02T12:27:48.667Z,102018.74
2017-12-02T12:30:14.450Z,102018.17
2017-12-02T12:32:40.392Z,102016.84
2017-12-02T12:35:06.172Z,102015.78
2017-12-02T12:37:31.991Z,102012.95
2017-12-02T12:39:58.575Z,102021.71
2017-12-02T12:42:25.475Z,102023.17
2017-12-02T12:44:52.231Z,102027.32
2017-12-02T12:47:19.055Z,102024.97
2017-12-02T12:49:45.834Z,102028.29
2017-12-02T12:52:11.623Z,102027.45
2017-12-02T12:54:38.323Z,102025.24
2017-12-02T12:57:04.951Z,102030.88
2017-12-02T12:59:30.736Z,102029.61
2017-12-02T13:01:56.524Z,102027.19
2017-12-02T13:04:22.359Z,102030.53
2017-12-02T13:06:48.932Z,102026.66
2017-12-02T13:09:14.859Z,102026.11
2017-12-02T13:11:40.635Z,102027.53
2017-12-02T13:14:06.412Z,102027.87
2017-12-02T13:16:32.215Z,102027.87
2017-12-02T13:18:58.852Z,102027.32
2017-12-02T13:21:25.615Z,102023.20
2017-12-02T13:23:51.523Z,102023.00
2017-12-02T13:26:17.295Z,102014.23
2017-12-02T13:28:43.117Z,102018.25
2017-12-02T13:31:08.891Z,102023.25
2017-12-02T13:33:34.668Z,102027.09
2017-12-02T13:36:00.451Z,102021.31
2017-12-02T13:38:26.293Z,102025.39
2017-12-02T13:40:53.019Z,102018.73
2017-12-02T13:43:18.810Z,102024.82
2017-12-02T13:45:45.509Z,102024.45
2017-12-02T13:48:11.298Z,102024.38
2017-12-02T13:50:37.184Z,102020.61
2017-12-02T13:53:02.961Z,102023.73
2017-12-02T13:55:28.777Z,102020.48
2017-12-02T13:57:54.547Z,102015.34
2017-12-02T14:00:21.432Z,102020.70
2017-12-02T14:02:48.207Z,102017.94
2017-12-02T14:05:14.049Z,102023.78
2017-12-02T14:07:39.831Z,102020.31
2017-12-02T14:10:05.628Z,102019.28
2017-12-02T14:12:31.703Z,102023.30
2017-12-02T14:14:57.483Z,102023.22
2017-12-02T14:17:23.296Z,102023.64
2017-12-02T14:19:49.074Z,102023.68
2017-12-02T14:22:14.859Z,102024.30
2017-12-02T14:24:40.631Z,102026.77
2017-12-02T14:27:06.404Z,102028.83
2017-12-02T14:29:33.075Z,102027.66
2017-12-02T14:31:58.848Z,102030.22
2017-12-02T14:34:24.652Z,102026.80
2017-12-02T14:36:50.607Z,102027.89
2017-12-02T14:39:16.554Z,102029.96
2017-12-02T14:41:42.331Z,102026.98
2017-12-02T14:44:08.104Z,102034.05
2017-12-02T14:46:34.042Z,102036.73
2017-12-02T14:48:59.822Z,102042.78
2017-12-02T14:51:25.639Z,102045.25
2017-12-02T14:53:52.434Z,102048.39
2017-12-02T14:56:18.216Z,102055.56
2017-12-02T14:58:44.003Z,102062.45
2017-12-02T15:01:09.785Z,102058.28
2017-12-02T15:03:35.775Z,102056.87
2017-12-02T15:06:01.571Z,102057.83
2017-12-02T15:08:27.372Z,102060.10
2017-12-02T15:10:54.016Z,102059.11
2017-12-02T15:13:19.788Z,102067.37
2017-12-02T15:15:45.611Z,102069.97
2017-12-02T15:18:11.387Z,102073.53
2017-12-02T15:20:37.166Z,102067.73
2017-12-02T15:23:02.936Z,102068.73
2017-12-02T15:25:28.741Z,102070.53
2017-12-02T15:27:54.516Z,102072.45
2017-12-02T15:30:20.291Z,102076.42
2017-12-02T15:32:46.923Z,102074.08
2017-12-02T15:35:12.711Z,102066.87
2017-12-02T15:37:38.489Z,102075.05
2017-12-02T15:40:04.271Z,102070.45
2017-12-02T15:42:30.079Z,102073.05
2017-12-02T15:44:55.875Z,102072.51
2017-12-02T15:47:21.651Z,102076.19
2017-12-02T15:49:47.418Z,102082.83
2017-12-02T15:52:13.238Z,102081.56
2017-12-02T15:54:39.035Z,102077.33
2017-12-02T15:57:05.796Z,102084.41
2017-12-02T15:59:31.586Z,102082.06
2017-12-02T16:01:57.359Z,102085.70
2017-12-02T16:04:23.139Z,102080.64
2017-12-02T16:06:48.932Z,102078.39
2017-12-02T16:09:14.727Z,102082.96
2017-12-02T16:11:40.510Z,102086.67
2017-12-02T16:14:06.295Z,102088.86
2017-12-02T16:16:32.138Z,102093.63
2017-12-02T16:18:57.922Z,102091.28
2017-12-02T16:21:23.736Z,102094.63
2017-12-02T16:23:50.395Z,102095.02
2017-12-02T16:26:16.203Z,102102.39
2017-12-02T16:28:42.006Z,102105.09
2017-12-02T16:31:07.792Z,102100.84
2017-12-02T16:33:33.602Z,102097.78
2017-12-02T16:35:59.382Z,102104.48
2017-12-02T16:38:25.208Z,102103.34
2017-12-02T16:40:51.012Z,102107.68
2017-12-02T16:43:16.828Z,102109.55
2017-12-02T16:45:42.623Z,102106.50
2017-12-02T16:48:08.411Z,102115.39
2017-12-02T16:50:34.203Z,102111.17
2017-12-02T16:53:00.039Z,102111.17
2017-12-02T16:55:26.802Z,102109.33
2017-12-02T16:57:52.591Z,102096.32
2017-12-02T17:00:18.411Z,102110.08
2017-12-02T17:02:45.191Z,102107.52
2017-12-02T17:05:11.999Z,102109.16
2017-12-02T17:07:37.783Z,102114.57
2017-12-02T17:10:03.591Z,102110.68
2017-12-02T17:12:29.368Z,102111.64
2017-12-02T17:14:55.139Z,102115.45
2017-12-02T17:17:21.768Z,102108.85
2017-12-02T17:19:47.543Z,102110.33
2017-12-02T17:22:13.436Z,102111.55
2017-12-02T17:24:39.241Z,102115.28
2017-12-02T17:27:05.024Z,102110.58
2017-12-02T17:29:30.804Z,102111.33
2017-12-02T17:31:57.076Z,102109.20
2017-12-02T17:34:23.712Z,102107.02
2017-12-02T17:36:49.532Z,102101.36
2017-12-02T17:39:15.304Z,102096.22
2017-12-02T17:41:41.081Z,102103.33
2017-12-02T17:44:06.883Z,102098.56
2017-12-02T17:46:32.715Z,102095.48
2017-12-02T17:48:58.757Z,102100.05
2017-12-02T17:51:24.731Z,102101.47
2017-12-02T17:53:50.613Z,102105.05
2017-12-02T17:56:16.542Z,102102.62
2017-12-02T17:58:42.468Z,102108.34
2017-12-02T18:01:08.276Z,102114.16
2017-12-02T18:03:34.063Z,102109.65
2017-12-02T18:05:59.843Z,102113.46
2017-12-02T18:08:25.620Z,102105.00
2017-12-02T18:10:51.400Z,102098.02
2017-12-02T18:13:17.220Z,102101.82
2017-12-02T18:15:43.005Z,102103.36
2017-12-02T18:18:08.782Z,102093.06
2017-12-02T18:20:34.563Z,102092.84
2017-12-02T18:23:00.327Z,102098.08
2017-12-02T18:25:26.099Z,102093.80
2017-12-02T18:27:51.997Z,102094.79
2017-12-02T18:30:17.775Z,102100.23
2017-12-02T18:32:43.552Z,102096.55
2017-12-02T18:35:09.365Z,102102.78
2017-12-02T18:37:35.144Z,102106.06
2017-12-02T18:40:00.920Z,102100.87
2017-12-02T18:42:26.694Z,102103.98
2017-12-02T18:44:52.465Z,102102.82
2017-12-02T18:47:18.267Z,102102.19
2017-12-02T18:49:44.043Z,102107.75
2017-12-02T18:52:09.807Z,102109.13
2017-12-02T18:54:36.623Z,102107.11
2017-12-02T18:57:03.226Z,102104.53
2017-12-02T18:59:30.145Z,102107.53
2017-12-02T19:01:55.918Z,102105.80
2017-12-02T19:04:21.709Z,102110.94
2017-12-02T19:06:47.505Z,102104.87
2017-12-02T19:09:13.299Z,102106.21
2017-12-02T19:11:40.274Z,102107.95
2017-12-02T19:14:06.261Z,102108.80
2017-12-02T19:16:32.980Z,102112.02
2017-12-02T19:19:03.915Z,102116.66
2017-12-02T19:21:29.763Z,102119.39
2017-12-02T19:23:55.579Z,102114.04
2017-12-02T19:26:21.422Z,102111.02
2017-12-02T19:28:48.219Z,102105.94
2017-12-02T19:31:14.223Z,102111.16
2017-12-02T19:33:40.086Z,102110.45
2017-12-02T19:36:05.858Z,102109.25
2017-12-02T19:38:31.715Z,102106.63
2017-12-02T19:40:57.614Z,102108.48
2017-12-02T19:43:23.463Z,102105.41
2017-12-02T19:45:49.259Z,102116.30
2017-12-02T19:48:15.024Z,102113.39
2017-12-02T19:50:42.899Z,102112.47
2017-12-02T19:53:12.629Z,102113.47
2017-12-02T19:55:42.771Z,102115.53
2017-12-02T19:58:09.263Z,102109.72
2017-12-02T20:00:38.098Z,102112.20
2017-12-02T20:03:04.156Z,102105.48
2017-12-02T20:05:30.998Z,102103.06
2017-12-02T20:07:56.780Z,102102.22
2017-12-02T20:10:22.611Z,102097.10
2017-12-02T20:12:48.395Z,102097.41
2017-12-02T20:15:14.173Z,102097.13
2017-12-02T20:17:40.004Z,102092.91
2017-12-02T20:20:05.792Z,102093.71
2017-12-02T20:22:31.606Z,102088.90
2017-12-02T20:24:58.391Z,102084.51
2017-12-02T20:27:24.220Z,102085.36
2017-12-02T20:29:50.293Z,102082.66
2017-12-02T20:32:16.147Z,102082.34
2017-12-02T20:34:41.919Z,102080.87
2017-12-02T20:37:08.583Z,102086.20
2017-12-02T20:39:34.361Z,102090.70
2017-12-02T20:42:01.125Z,102084.23
2017-12-02T20:44:27.240Z,102081.31
2017-12-02T20:46:53.987Z,102082.36
2017-12-02T20:49:20.765Z,102077.40
2017-12-02T20:51:46.535Z,102082.09
2017-12-02T20:54:12.310Z,102078.38
2017-12-02T20:56:38.085Z,102081.57
2017-12-02T20:59:04.711Z,102073.73
2017-12-02T21:01:30.487Z,102069.86
2017-12-02T21:03:57.254Z,102073.88
2017-12-02T21:06:24.040Z,102074.53
2017-12-02T21:08:50.775Z,102066.57
2017-12-02T21:11:16.545Z,102069.09
2017-12-02T21:13:42.323Z,102073.23
2017-12-02T21:16:08.088Z,102075.28
2017-12-02T21:18:34.742Z,102074.80
2017-12-02T21:21:00.507Z,102071.48
2017-12-02T21:23:26.311Z,102072.02
2017-12-02T21:25:52.095Z,102070.36
2017-12-02T21:28:17.892Z,102068.84
2017-12-02T21:30:44.544Z,102069.31
2017-12-02T21:33:11.277Z,102067.09
2017-12-02T21:35:37.975Z,102070.27
2017-12-02T21:38:04.682Z,102072.11
2017-12-02T21:40:30.447Z,102066.55
2017-12-02T21:42:57.190Z,102064.68
2017-12-02T21:45:22.959Z,102063.16
2017-12-02T21:47:48.762Z,102059.56
2017-12-02T21:50:14.528Z,102057.65
2017-12-02T21:52:41.244Z,102070.94
2017-12-02T21:55:07.984Z,102072.31
2017-12-02T21:57:33.767Z,102070.79
2017-12-02T21:59:59.539Z,102067.05
2017-12-02T22:02:26.194Z,102070.11
2017-12-02T22:04:51.959Z,102066.34
2017-12-02T22:07:17.777Z,102066.34
2017-12-02T22:09:43.585Z,102066.12
2017-12-02T22:12:09.363Z,102064.60
2017-12-02T22:14:35.137Z,102065.62
2017-12-02T22:17:01.819Z,102063.33
2017-12-02T22:19:27.591Z,102068.02
2017-12-02T22:21:53.359Z,102062.06
2017-12-02T22:24:19.931Z,102063.13
2017-12-02T22:26:45.697Z,102071.00
2017-12-02T22:29:11.468Z,102068.63
2017-12-02T22:31:37.248Z,102072.48
2017-12-02T22:34:03.022Z,102070.45
2017-12-02T22:36:28.787Z,102068.22
2017-12-02T22:38:55.563Z,102066.70
2017-12-02T22:41:22.179Z,102068.50
2017-12-02T22:43:47.940Z,102065.52
2017-12-02T22:46:13.839Z,102068.00
2017-12-02T22:48:39.603Z,102068.10
2017-12-02T22:51:05.378Z,102066.92
2017-12-02T22:53:31.144Z,102065.61
2017-12-02T22:55:56.916Z,102065.41
2017-12-02T22:58:22.737Z,102060.95
2017-12-02T23:00:48.538Z,102059.14
2017-12-02T23:03:14.319Z,102062.45
2017-12-02T23:05:40.127Z,102053.73
2017-12-02T23:08:06.059Z,102055.84
2017-12-02T23:10:31.835Z,102062.98
2017-12-02T23:12:57.615Z,102058.61
2017-12-02T23:15:23.379Z,102057.00
2017-12-02T23:17:49.179Z,102055.75
2017-12-02T23:20:17.570Z,102061.73
2017-12-02T23:22:43.371Z,102058.15
2017-12-02T23:25:09.148Z,102056.00
2017-12-02T23:27:35.954Z,102054.08
2017-12-02T23:30:01.785Z,102055.34
2017-12-02T23:32:27.554Z,102046.64
2017-12-02T23:34:53.348Z,102050.81
2017-12-02T23:37:19.231Z,102046.50
2017-12-02T23:39:45.044Z,102051.03
2017-12-02T23:42:10.809Z,102046.20
2017-12-02T23:44:36.667Z,102049.49
2017-12-02T23:47:02.448Z,102037.89
2017-12-02T23:49:28.247Z,102047.22
2017-12-02T23:51:54.047Z,102040.29
2017-12-02T23:54:19.831Z,102040.61
2017-12-02T23:56:45.632Z,102042.78
2017-12-02T23:59:11.403Z,102039.64
